Time,TemperatureF,DewpointF,PressureIn,WindDirection,WindDirectionDegrees,WindSpeedMPH,WindSpeedGustMPH,Humidity,HourlyPrecipIn,Conditions,Clouds,dailyrainin,SoftwareType,DateUTC
2013-02-08 00:00:00,45.0,38.6,29.73,NW,315,1.0,3.0,78,0.00,,,0.00,VWS V14.01,2013-02-08 08:00:00,
2013-02-08 00:02:00,37.6,34.4,29.56,NW,326,0.0,13.0,88,0.00,,,0.00,VWS V14.01,2013-02-08 08:02:00,
2013-02-08 00:07:00,37.5,34.0,29.56,NW,326,1.0,13.0,87,0.00,,,0.00,VWS V14.01,2013-02-08 08:07:00,
2013-02-08 00:12:00,37.3,33.8,29.56,NNW,327,1.0,13.0,87,0.00,,,0.00,VWS V14.01,2013-02-08 08:12:00,
2013-02-08 00:17:00,37.1,33.9,29.56,NW,326,0.0,13.0,88,0.00,,,0.00,VWS V14.01,2013-02-08 08:17:00,
2013-02-08 00:22:00,36.9,33.7,29.56,NW,326,1.0,13.0,88,0.00,,,0.00,VWS V14.01,2013-02-08 08:22:00,
2013-02-08 00:27:00,36.8,33.6,29.56,NW,326,2.0,13.0,88,0.00,,,0.00,VWS V14.01,2013-02-08 08:27:00,
2013-02-08 00:30:00,44.2,38.4,29.73,NW,315,1.0,3.0,80,0.00,,,0.00,VWS V14.01,2013-02-08 08:30:00,
2013-02-08 00:33:00,37.0,33.8,29.55,NW,326,2.0,13.0,88,0.00,,,0.00,VWS V14.01,2013-02-08 08:33:00,
2013-02-08 00:38:00,37.2,34.0,29.56,NW,326,0.0,13.0,88,0.00,,,0.00,VWS V14.01,2013-02-08 08:38:00,
2013-02-08 00:43:00,37.1,33.9,29.56,NW,326,0.0,13.0,88,0.00,,,0.00,VWS V14.01,2013-02-08 08:43:00,
2013-02-08 00:48:00,37.3,34.1,29.55,NW,326,0.0,13.0,88,0.00,,,0.00,VWS V14.01,2013-02-08 08:48:00,
2013-02-08 00:53:00,37.1,33.9,29.55,NW,326,0.0,13.0,88,0.00,,,0.00,VWS V14.01,2013-02-08 08:53:00,
2013-02-08 00:58:00,37.3,34.1,29.55,NW,326,1.0,13.0,88,0.00,,,0.00,VWS V14.01,2013-02-08 08:58:00,
2013-02-08 01:00:00,43.7,38.3,29.73,NW,315,2.0,4.0,81,0.00,,,0.00,VWS V14.01,2013-02-08 09:00:00,
2013-02-08 01:03:00,37.4,34.2,29.55,NW,326,3.0,13.0,88,0.00,,,0.00,VWS V14.01,2013-02-08 09:03:00,
2013-02-08 01:08:00,37.4,34.5,29.55,NW,326,2.0,13.0,89,0.00,,,0.00,VWS V14.01,2013-02-08 09:08:00,
2013-02-08 01:13:00,37.9,35.0,29.55,NNW,327,2.0,13.0,89,0.00,,,0.00,VWS V14.01,2013-02-08 09:13:00,
2013-02-08 01:18:00,38.3,35.3,29.55,NW,326,0.0,13.0,89,0.00,,,0.01,VWS V14.01,2013-02-08 09:18:00,
2013-02-08 01:23:00,38.4,35.5,29.54,NW,326,0.0,13.0,89,0.00,,,0.02,VWS V14.01,2013-02-08 09:23:00,
2013-02-08 01:28:00,38.7,36.0,29.54,NNW,327,0.0,13.0,90,0.00,,,0.02,VWS V14.01,2013-02-08 09:28:00,
2013-02-08 01:30:00,42.9,38.1,29.73,NW,315,1.0,3.0,83,0.00,,,0.00,VWS V14.01,2013-02-08 09:30:00,
2013-02-08 01:33:00,38.7,35.7,29.54,NW,326,0.0,13.0,89,0.00,,,0.02,VWS V14.01,2013-02-08 09:33:00,
2013-02-08 01:38:00,38.8,35.8,29.54,NW,326,0.0,13.0,89,0.00,,,0.02,VWS V14.01,2013-02-08 09:38:00,
2013-02-08 01:43:00,38.8,36.1,29.53,NW,326,0.0,13.0,90,0.00,,,0.02,VWS V14.01,2013-02-08 09:43:00,
2013-02-08 01:48:00,38.9,36.2,29.53,NW,326,0.0,13.0,90,0.00,,,0.02,VWS V14.01,2013-02-08 09:48:00,
2013-02-08 01:53:00,38.9,35.9,29.53,NW,326,1.0,13.0,89,0.00,,,0.02,VWS V14.01,2013-02-08 09:53:00,
2013-02-08 01:58:00,38.9,36.2,29.53,NW,326,1.0,13.0,90,0.00,,,0.02,VWS V14.01,2013-02-08 09:58:00,
2013-02-08 02:00:00,43.2,39.0,29.72,NW,315,0.0,3.0,85,0.00,,,0.00,VWS V14.01,2013-02-08 10:00:00,
2013-02-08 02:03:00,39.0,36.0,29.53,NW,326,1.0,13.0,89,0.00,,,0.02,VWS V14.01,2013-02-08 10:03:00,
2013-02-08 02:08:00,39.2,36.5,29.53,NW,326,1.0,13.0,90,0.00,,,0.02,VWS V14.01,2013-02-08 10:08:00,
2013-02-08 02:13:00,39.4,36.7,29.53,NW,326,1.0,13.0,90,0.00,,,0.02,VWS V14.01,2013-02-08 10:13:00,
2013-02-08 02:18:00,39.4,36.7,29.53,NW,326,0.0,13.0,90,0.00,,,0.02,VWS V14.01,2013-02-08 10:18:00,
2013-02-08 02:23:00,39.3,36.6,29.53,NW,326,0.0,13.0,90,0.00,,,0.02,VWS V14.01,2013-02-08 10:23:00,
2013-02-08 02:28:00,39.5,36.8,29.52,NW,326,0.0,13.0,90,0.00,,,0.02,VWS V14.01,2013-02-08 10:28:00,
2013-02-08 02:30:00,44.0,39.5,29.72,NW,315,0.0,0.0,84,0.00,,,0.00,VWS V14.01,2013-02-08 10:30:00,
2013-02-08 02:33:00,39.2,36.5,29.52,NW,326,0.0,13.0,90,0.00,,,0.03,VWS V14.01,2013-02-08 10:33:00,
2013-02-08 02:38:00,39.3,36.6,29.52,NNW,327,0.0,13.0,90,0.00,,,0.02,VWS V14.01,2013-02-08 10:38:00,
2013-02-08 02:43:00,39.4,36.7,29.52,NW,326,0.0,13.0,90,0.00,,,0.02,VWS V14.01,2013-02-08 10:43:00,
2013-02-08 02:48:00,39.5,36.8,29.51,NW,326,0.0,13.0,90,0.00,,,0.02,VWS V14.01,2013-02-08 10:48:00,
2013-02-08 02:53:00,39.7,37.0,29.52,NNW,327,0.0,13.0,90,0.00,,,0.02,VWS V14.01,2013-02-08 10:53:00,
2013-02-08 02:58:00,39.7,37.0,29.52,NW,326,0.0,13.0,90,0.00,,,0.02,VWS V14.01,2013-02-08 10:58:00,
2013-02-08 03:00:00,45.1,40.6,29.72,NW,315,0.0,4.0,84,0.00,,,0.00,VWS V14.01,2013-02-08 11:00:00,
2013-02-08 03:03:00,39.7,37.0,29.52,NW,326,1.0,13.0,90,0.00,,,0.02,VWS V14.01,2013-02-08 11:03:00,
2013-02-08 03:08:00,39.8,37.1,29.52,NW,326,0.0,13.0,90,0.00,,,0.02,VWS V14.01,2013-02-08 11:08:00,
2013-02-08 03:13:00,40.0,37.3,29.51,NW,326,1.0,13.0,90,0.00,,,0.02,VWS V14.01,2013-02-08 11:13:00,
2013-02-08 03:18:00,39.9,37.2,29.51,NW,326,1.0,13.0,90,0.00,,,0.02,VWS V14.01,2013-02-08 11:18:00,
2013-02-08 03:23:00,40.0,37.3,29.51,NW,326,1.0,13.0,90,0.00,,,0.02,VWS V14.01,2013-02-08 11:23:00,
2013-02-08 03:28:00,39.9,37.2,29.51,NW,326,2.0,13.0,90,0.00,,,0.02,VWS V14.01,2013-02-08 11:28:00,
2013-02-08 03:30:00,45.9,40.7,29.72,NW,315,0.0,3.0,82,0.00,,,0.00,VWS V14.01,2013-02-08 11:30:00,
2013-02-08 03:33:00,39.7,37.0,29.51,NW,326,0.0,13.0,90,0.00,,,0.02,VWS V14.01,2013-02-08 11:33:00,
2013-02-08 03:38:00,39.7,37.0,29.51,NW,326,0.0,13.0,90,0.00,,,0.02,VWS V14.01,2013-02-08 11:38:00,
2013-02-08 03:43:00,39.5,36.8,29.51,NW,326,0.0,13.0,90,0.00,,,0.02,VWS V14.01,2013-02-08 11:43:00,
2013-02-08 03:48:00,39.3,36.3,29.51,NW,326,0.0,13.0,89,0.00,,,0.02,VWS V14.01,2013-02-08 11:48:00,
2013-02-08 03:53:00,39.2,36.5,29.52,NW,326,0.0,13.0,90,0.00,,,0.02,VWS V14.01,2013-02-08 11:53:00,
2013-02-08 03:58:00,39.4,36.7,29.51,NW,326,0.0,13.0,90,0.00,,,0.02,VWS V14.01,2013-02-08 11:58:00,
2013-02-08 04:00:00,45.8,40.6,29.71,NW,315,0.0,3.0,82,0.00,,,0.00,VWS V14.01,2013-02-08 12:00:00,
2013-02-08 04:03:00,39.1,36.4,29.51,NW,326,0.0,13.0,90,0.00,,,0.02,VWS V14.01,2013-02-08 12:03:00,
2013-02-08 04:08:00,38.9,35.9,29.51,NW,326,1.0,13.0,89,0.00,,,0.03,VWS V14.01,2013-02-08 12:08:00,
2013-02-08 04:13:00,39.1,36.1,29.51,NW,326,0.0,13.0,89,0.00,,,0.03,VWS V14.01,2013-02-08 12:13:00,
2013-02-08 04:18:00,39.0,36.0,29.51,NW,326,0.0,13.0,89,0.00,,,0.03,VWS V14.01,2013-02-08 12:18:00,
2013-02-08 04:23:00,38.7,36.0,29.51,NW,326,0.0,13.0,90,0.00,,,0.03,VWS V14.01,2013-02-08 12:23:00,
2013-02-08 04:28:00,38.5,35.5,29.52,NW,326,0.0,13.0,89,0.00,,,0.03,VWS V14.01,2013-02-08 12:28:00,
2013-02-08 04:30:00,46.1,40.9,29.70,NW,315,0.0,2.0,82,0.00,,,0.00,VWS V14.01,2013-02-08 12:30:00,
2013-02-08 04:33:00,38.5,35.5,29.52,NW,326,0.0,13.0,89,0.00,,,0.03,VWS V14.01,2013-02-08 12:33:00,
2013-02-08 04:38:00,38.4,35.5,29.51,NW,326,0.0,13.0,89,0.00,,,0.03,VWS V14.01,2013-02-08 12:38:00,
2013-02-08 04:43:00,38.2,35.2,29.52,NW,326,1.0,13.0,89,0.00,,,0.03,VWS V14.01,2013-02-08 12:43:00,
2013-02-08 04:48:00,38.1,35.4,29.52,NW,326,1.0,13.0,90,0.00,,,0.03,VWS V14.01,2013-02-08 12:48:00,
2013-02-08 04:53:00,38.0,35.0,29.52,NW,326,0.0,13.0,89,0.00,,,0.03,VWS V14.01,2013-02-08 12:53:00,
2013-02-08 04:58:00,38.1,35.2,29.52,NW,326,1.0,13.0,89,0.00,,,0.03,VWS V14.01,2013-02-08 12:58:00,
2013-02-08 05:00:00,46.4,41.2,29.69,NW,315,0.0,2.0,82,0.00,,,0.00,VWS V14.01,2013-02-08 13:00:00,
2013-02-08 05:03:00,37.9,35.0,29.53,NW,326,2.0,13.0,89,0.00,,,0.03,VWS V14.01,2013-02-08 13:03:00,
2013-02-08 05:08:00,37.9,35.2,29.52,NW,326,2.0,13.0,90,0.00,,,0.03,VWS V14.01,2013-02-08 13:08:00,
2013-02-08 05:13:00,38.2,35.5,29.52,NW,326,1.0,13.0,90,0.00,,,0.03,VWS V14.01,2013-02-08 13:13:00,
2013-02-08 05:18:00,38.0,35.0,29.52,NW,326,0.0,13.0,89,0.00,,,0.03,VWS V14.01,2013-02-08 13:18:00,
2013-02-08 05:23:00,38.1,35.2,29.52,NW,326,0.0,13.0,89,0.00,,,0.03,VWS V14.01,2013-02-08 13:23:00,
2013-02-08 05:28:00,37.9,35.2,29.52,NW,326,0.0,13.0,90,0.00,,,0.03,VWS V14.01,2013-02-08 13:28:00,
2013-02-08 05:30:00,46.4,41.8,29.68,NW,315,0.0,1.0,84,0.00,,,0.00,VWS V14.01,2013-02-08 13:30:00,
2013-02-08 05:33:00,37.6,34.9,29.53,NW,326,0.0,13.0,90,0.00,,,0.03,VWS V14.01,2013-02-08 13:33:00,
2013-02-08 05:38:00,37.7,35.0,29.53,NW,326,0.0,13.0,90,0.00,,,0.03,VWS V14.01,2013-02-08 13:38:00,
2013-02-08 05:43:00,37.6,34.9,29.53,NW,326,0.0,13.0,90,0.00,,,0.03,VWS V14.01,2013-02-08 13:43:00,
2013-02-08 05:48:00,37.5,34.8,29.53,NW,326,2.0,13.0,90,0.00,,,0.03,VWS V14.01,2013-02-08 13:48:00,
2013-02-08 05:53:00,37.5,34.8,29.52,NW,326,2.0,13.0,90,0.00,,,0.03,VWS V14.01,2013-02-08 13:53:00,
2013-02-08 05:58:00,37.5,34.8,29.53,NW,326,0.0,13.0,90,0.00,,,0.03,VWS V14.01,2013-02-08 13:58:00,
2013-02-08 06:00:00,46.3,42.0,29.68,NW,315,0.0,3.0,85,0.00,,,0.00,VWS V14.01,2013-02-08 14:00:00,
2013-02-08 06:03:00,37.6,34.9,29.53,NW,326,2.0,13.0,90,0.00,,,0.03,VWS V14.01,2013-02-08 14:03:00,
2013-02-08 06:08:00,37.4,34.7,29.53,NW,326,2.0,13.0,90,0.00,,,0.03,VWS V14.01,2013-02-08 14:08:00,
2013-02-08 06:13:00,37.7,35.0,29.53,NW,326,1.0,13.0,90,0.00,,,0.03,VWS V14.01,2013-02-08 14:13:00,
2013-02-08 06:18:00,37.8,35.1,29.53,NW,326,0.0,13.0,90,0.00,,,0.03,VWS V14.01,2013-02-08 14:18:00,
2013-02-08 06:23:00,37.7,35.0,29.53,NW,326,1.0,13.0,90,0.00,,,0.03,VWS V14.01,2013-02-08 14:23:00,
2013-02-08 06:28:00,37.5,34.8,29.53,NW,326,1.0,13.0,90,0.00,,,0.03,VWS V14.01,2013-02-08 14:28:00,
2013-02-08 06:30:00,46.5,42.5,29.67,NW,315,0.0,3.0,86,0.01,,,0.01,VWS V14.01,2013-02-08 14:30:00,
2013-02-08 06:33:00,37.4,34.7,29.53,NW,326,1.0,13.0,90,0.00,,,0.03,VWS V14.01,2013-02-08 14:33:00,
2013-02-08 06:39:00,37.4,34.7,29.54,NW,326,2.0,13.0,90,0.00,,,0.03,VWS V14.01,2013-02-08 14:39:00,
2013-02-08 06:44:00,37.3,34.6,29.54,NW,326,1.0,13.0,90,0.00,,,0.03,VWS V14.01,2013-02-08 14:44:00,
2013-02-08 06:49:00,37.1,34.4,29.54,NW,326,0.0,13.0,90,0.00,,,0.03,VWS V14.01,2013-02-08 14:49:00,
2013-02-08 06:54:00,37.2,34.5,29.54,NW,326,2.0,13.0,90,0.00,,,0.03,VWS V14.01,2013-02-08 14:54:00,
2013-02-08 06:59:00,37.2,34.5,29.54,NW,326,0.0,13.0,90,0.00,,,0.03,VWS V14.01,2013-02-08 14:59:00,
2013-02-08 07:00:00,46.2,42.8,29.67,NW,315,0.0,2.0,88,0.01,,,0.01,VWS V14.01,2013-02-08 15:00:00,
2013-02-08 07:04:00,37.2,34.5,29.54,NW,326,1.0,13.0,90,0.00,,,0.03,VWS V14.01,2013-02-08 15:04:00,
2013-02-08 07:09:00,37.1,34.4,29.54,NW,326,1.0,13.0,90,0.00,,,0.03,VWS V14.01,2013-02-08 15:09:00,
2013-02-08 07:14:00,36.9,34.2,29.54,NW,326,1.0,13.0,90,0.00,,,0.03,VWS V14.01,2013-02-08 15:14:00,
2013-02-08 07:19:00,37.1,34.4,29.55,NW,326,1.0,13.0,90,0.00,,,0.03,VWS V14.01,2013-02-08 15:19:00,
2013-02-08 07:24:00,37.0,34.3,29.55,NNW,327,3.0,13.0,90,0.00,,,0.03,VWS V14.01,2013-02-08 15:24:00,
2013-02-08 07:29:00,37.0,34.3,29.55,NW,326,3.0,13.0,90,0.00,,,0.03,VWS V14.01,2013-02-08 15:29:00,
2013-02-08 07:30:00,46.6,43.5,29.67,NW,315,0.0,4.0,89,0.01,,,0.01,VWS V14.01,2013-02-08 15:30:00,
2013-02-08 07:34:00,37.1,34.4,29.55,NW,326,2.0,13.0,90,0.00,,,0.03,VWS V14.01,2013-02-08 15:34:00,
2013-02-08 07:39:00,36.8,34.2,29.55,NW,326,4.0,13.0,90,0.00,,,0.03,VWS V14.01,2013-02-08 15:39:00,
2013-02-08 07:44:00,37.1,34.4,29.56,NNW,327,3.0,13.0,90,0.00,,,0.03,VWS V14.01,2013-02-08 15:44:00,
2013-02-08 07:54:00,37.6,34.9,29.53,NW,315,1.0,3.0,90,0.00,,,0.03,VWS V14.01,2013-02-08 15:54:00,
2013-02-08 07:59:00,37.0,34.3,29.56,NW,326,3.0,5.0,90,0.00,,,0.00,VWS V14.01,2013-02-08 15:59:00,
2013-02-08 08:00:00,47.2,44.4,29.66,NW,315,0.0,4.0,90,0.06,,,0.03,VWS V14.01,2013-02-08 16:00:00,
2013-02-08 08:04:00,37.2,34.5,29.56,NW,326,3.0,5.0,90,0.00,,,0.00,VWS V14.01,2013-02-08 16:04:00,
2013-02-08 08:09:00,37.1,34.4,29.56,NW,326,4.0,5.0,90,0.00,,,0.00,VWS V14.01,2013-02-08 16:09:00,
2013-02-08 08:14:00,37.1,34.4,29.56,NW,326,2.0,5.0,90,0.00,,,0.00,VWS V14.01,2013-02-08 16:14:00,
2013-02-08 08:19:00,37.1,34.4,29.56,NW,326,4.0,5.0,90,0.00,,,0.00,VWS V14.01,2013-02-08 16:19:00,
2013-02-08 08:24:00,37.5,35.1,29.57,NW,326,4.0,5.0,91,0.00,,,0.00,VWS V14.01,2013-02-08 16:24:00,
2013-02-08 08:29:00,37.5,35.1,29.57,NW,326,3.0,5.0,91,0.00,,,0.00,VWS V14.01,2013-02-08 16:29:00,
2013-02-08 08:30:00,47.3,44.5,29.66,NW,315,1.0,4.0,90,0.08,,,0.05,VWS V14.01,2013-02-08 16:30:00,
2013-02-08 08:34:00,37.9,35.2,29.57,NNW,327,2.0,5.0,90,0.00,,,0.00,VWS V14.01,2013-02-08 16:34:00,
2013-02-08 08:39:00,38.0,35.6,29.57,NNW,327,3.0,5.0,91,0.00,,,0.00,VWS V14.01,2013-02-08 16:39:00,
2013-02-08 08:44:00,38.2,35.8,29.57,NNW,327,2.0,5.0,91,0.00,,,0.00,VWS V14.01,2013-02-08 16:44:00,
2013-02-08 08:49:00,38.5,36.1,29.57,NW,326,1.0,5.0,91,0.00,,,0.00,VWS V14.01,2013-02-08 16:49:00,
2013-02-08 08:54:00,39.1,36.7,29.57,NW,326,1.0,5.0,91,0.00,,,0.00,VWS V14.01,2013-02-08 16:54:00,
2013-02-08 08:59:00,39.5,37.1,29.57,NW,326,3.0,5.0,91,0.00,,,0.00,VWS V14.01,2013-02-08 16:59:00,
2013-02-08 09:00:00,47.1,44.3,29.68,SSE,158,0.0,3.0,90,0.16,,,0.13,VWS V14.01,2013-02-08 17:00:00,
2013-02-08 09:04:00,40.0,37.6,29.57,NNW,327,2.0,5.0,91,0.00,,,0.00,VWS V14.01,2013-02-08 17:04:00,
2013-02-08 09:09:00,40.4,38.0,29.57,NW,326,0.0,5.0,91,0.00,,,0.00,VWS V14.01,2013-02-08 17:09:00,
2013-02-08 09:14:00,40.8,38.4,29.57,NW,326,3.0,5.0,91,0.00,,,0.00,VWS V14.01,2013-02-08 17:14:00,
2013-02-08 09:19:00,40.9,38.2,29.57,NNW,327,2.0,5.0,90,0.00,,,0.00,VWS V14.01,2013-02-08 17:19:00,
2013-02-08 09:24:00,41.1,38.4,29.57,NNW,327,1.0,5.0,90,0.00,,,0.00,VWS V14.01,2013-02-08 17:24:00,
2013-02-08 09:29:00,41.4,38.7,29.58,NNW,327,1.0,5.0,90,0.00,,,0.00,VWS V14.01,2013-02-08 17:29:00,
2013-02-08 09:30:00,46.3,43.2,29.69,NNW,338,3.0,12.0,89,0.12,,,0.15,VWS V14.01,2013-02-08 17:30:00,
2013-02-08 09:34:00,41.8,39.1,29.58,NNW,327,1.0,5.0,90,0.00,,,0.00,VWS V14.01,2013-02-08 17:34:00,
2013-02-08 09:39:00,42.3,39.6,29.58,NW,326,1.0,5.0,90,0.00,,,0.00,VWS V14.01,2013-02-08 17:39:00,
2013-02-08 09:44:00,43.0,40.0,29.58,NW,326,2.0,5.0,89,0.00,,,0.00,VWS V14.01,2013-02-08 17:44:00,
2013-02-08 09:49:00,43.1,39.8,29.58,NW,326,0.0,5.0,88,0.00,,,0.00,VWS V14.01,2013-02-08 17:49:00,
2013-02-08 09:54:00,43.3,39.7,29.58,NNW,327,0.0,5.0,87,0.00,,,0.00,VWS V14.01,2013-02-08 17:54:00,
2013-02-08 09:59:00,43.7,39.8,29.58,NW,326,0.0,5.0,86,0.00,,,0.00,VWS V14.01,2013-02-08 17:59:00,
2013-02-08 10:00:00,45.4,42.6,29.70,NNW,338,1.0,4.0,90,0.10,,,0.15,VWS V14.01,2013-02-08 18:00:00,
2013-02-08 10:04:00,44.1,39.9,29.58,NW,326,2.0,5.0,85,0.00,,,0.00,VWS V14.01,2013-02-08 18:04:00,
2013-02-08 10:09:00,44.1,39.6,29.58,NW,326,0.0,5.0,84,0.00,,,0.00,VWS V14.01,2013-02-08 18:09:00,
2013-02-08 10:14:00,44.5,39.7,29.58,NW,326,0.0,5.0,83,0.00,,,0.00,VWS V14.01,2013-02-08 18:14:00,
2013-02-08 10:19:00,45.0,39.8,29.59,NNW,327,0.0,5.0,82,0.00,,,0.00,VWS V14.01,2013-02-08 18:19:00,
2013-02-08 10:24:00,45.3,39.5,29.58,NNW,327,2.0,5.0,80,0.00,,,0.00,VWS V14.01,2013-02-08 18:24:00,
2013-02-08 10:30:00,45.8,39.3,29.58,NW,326,0.0,5.0,78,0.00,,,0.00,VWS V14.01,2013-02-08 18:30:00,
2013-02-08 10:35:00,46.1,39.0,29.58,NNW,333,2.0,6.0,76,0.00,,,0.00,VWS V14.01,2013-02-08 18:35:00,
2013-02-08 10:40:00,46.4,37.9,29.58,NNW,345,3.0,8.0,72,0.00,,,0.00,VWS V14.01,2013-02-08 18:40:00,
2013-02-08 10:45:00,46.4,37.9,29.58,NNW,344,1.0,8.0,72,0.00,,,0.00,VWS V14.01,2013-02-08 18:45:00,
2013-02-08 10:50:00,46.5,38.0,29.58,NNW,344,3.0,8.0,72,0.00,,,0.00,VWS V14.01,2013-02-08 18:50:00,
2013-02-08 11:00:00,47.0,37.0,29.58,NNW,345,3.0,8.0,68,0.00,,,0.00,VWS V14.01,2013-02-08 19:00:00,
2013-02-08 11:05:00,47.0,36.2,29.58,NNW,343,4.0,8.0,66,0.00,,,0.00,VWS V14.01,2013-02-08 19:05:00,
2013-02-08 11:10:00,47.1,37.5,29.58,NNW,342,4.0,8.0,69,0.00,,,0.00,VWS V14.01,2013-02-08 19:10:00,
2013-02-08 11:15:00,47.4,36.2,29.58,NNW,346,4.0,8.0,65,0.00,,,0.00,VWS V14.01,2013-02-08 19:15:00,
2013-02-08 11:20:00,47.6,36.0,29.58,NNW,348,2.0,8.0,64,0.00,,,0.00,VWS V14.01,2013-02-08 19:20:00,
2013-02-08 11:25:00,48.2,36.6,29.58,NNW,348,3.0,8.0,64,0.00,,,0.03,VWS V14.01,2013-02-08 19:25:00,
2013-02-08 11:30:00,48.6,37.8,29.57,NNW,348,3.0,8.0,66,0.00,,,0.00,VWS V14.01,2013-02-08 19:30:00,
2013-02-08 11:35:00,48.6,37.4,29.57,NNW,348,4.0,8.0,65,0.00,,,0.00,VWS V14.01,2013-02-08 19:35:00,
2013-02-08 11:40:00,48.8,37.2,29.57,NNW,348,1.0,8.0,64,0.00,,,0.00,VWS V14.01,2013-02-08 19:40:00,
2013-02-08 11:45:00,48.9,35.6,29.57,North,349,0.0,8.0,60,0.00,,,0.00,VWS V14.01,2013-02-08 19:45:00,
2013-02-08 11:50:00,49.3,37.2,29.56,North,349,1.0,8.0,63,0.00,,,0.00,VWS V14.01,2013-02-08 19:50:00,
2013-02-08 11:55:00,49.8,37.7,29.56,North,349,0.0,8.0,63,0.00,,,0.00,VWS V14.01,2013-02-08 19:55:00,
2013-02-08 12:00:00,50.1,37.6,29.56,North,349,4.0,8.0,62,0.00,,,0.00,VWS V14.01,2013-02-08 20:00:00,
2013-02-08 12:05:00,50.7,37.3,29.56,North,349,4.0,9.0,60,0.00,,,0.00,VWS V14.01,2013-02-08 20:05:00,
2013-02-08 12:10:00,51.2,36.1,29.56,North,355,2.0,9.0,56,0.00,,,0.00,VWS V14.01,2013-02-08 20:10:00,
2013-02-08 12:15:00,51.1,35.5,29.55,North,11,0.0,9.0,55,0.00,,,0.00,VWS V14.01,2013-02-08 20:15:00,
2013-02-08 12:20:00,51.5,36.8,29.56,NNE,14,2.0,9.0,57,0.00,,,0.00,VWS V14.01,2013-02-08 20:20:00,
2013-02-08 12:25:00,51.6,36.9,29.55,NNE,12,2.0,9.0,57,0.00,,,0.00,VWS V14.01,2013-02-08 20:25:00,
2013-02-08 12:30:00,51.9,38.0,29.56,NNE,12,0.0,9.0,59,0.00,,,0.00,VWS V14.01,2013-02-08 20:30:00,
2013-02-08 12:35:00,52.4,38.1,29.55,North,11,2.0,9.0,58,0.00,,,0.03,VWS V14.01,2013-02-08 20:35:00,
2013-02-08 12:40:00,52.7,38.3,29.55,North,11,2.0,9.0,58,0.00,,,0.00,VWS V14.01,2013-02-08 20:40:00,
2013-02-08 12:45:00,52.8,38.0,29.55,North,9,2.0,9.0,57,0.00,,,0.00,VWS V14.01,2013-02-08 20:45:00,
2013-02-08 12:50:00,53.2,37.9,29.55,North,3,3.0,9.0,56,0.00,,,0.00,VWS V14.01,2013-02-08 20:50:00,
2013-02-08 12:55:00,53.3,38.5,29.55,North,0,4.0,9.0,57,0.00,,,0.00,VWS V14.01,2013-02-08 20:55:00,
2013-02-08 13:00:00,53.3,38.0,29.55,North,350,1.0,9.0,56,0.00,,,0.00,VWS V14.01,2013-02-08 21:00:00,
2013-02-08 13:05:00,53.0,37.3,29.55,NNW,344,0.0,9.0,55,0.00,,,0.00,VWS V14.01,2013-02-08 21:05:00,
2013-02-08 13:10:00,53.1,37.4,29.55,NNW,340,3.0,9.0,55,0.00,,,0.00,VWS V14.01,2013-02-08 21:10:00,
2013-02-08 13:15:00,53.2,37.5,29.54,NNW,340,0.0,9.0,55,0.00,,,0.00,VWS V14.01,2013-02-08 21:15:00,
2013-02-08 13:20:00,53.7,37.0,29.54,NNW,340,0.0,9.0,53,0.00,,,0.00,VWS V14.01,2013-02-08 21:20:00,
2013-02-08 13:25:00,54.4,37.6,29.54,NNW,340,1.0,9.0,53,0.00,,,0.00,VWS V14.01,2013-02-08 21:25:00,
2013-02-08 13:30:00,54.8,37.5,29.54,NNW,340,1.0,9.0,52,0.00,,,0.00,VWS V14.01,2013-02-08 21:30:00,
2013-02-08 13:35:00,54.0,36.3,29.54,NNW,339,3.0,9.0,51,0.00,,,0.00,VWS V14.01,2013-02-08 21:35:00,
2013-02-08 13:40:00,53.8,36.1,29.54,NNW,339,5.0,9.0,51,0.00,,,0.00,VWS V14.01,2013-02-08 21:40:00,
2013-02-08 13:45:00,54.2,37.0,29.54,NNW,348,0.0,9.0,52,0.00,,,0.00,VWS V14.01,2013-02-08 21:45:00,
2013-02-08 13:50:00,54.7,37.4,29.54,NNW,348,0.0,9.0,52,0.00,,,0.00,VWS V14.01,2013-02-08 21:50:00,
2013-02-08 13:56:00,55.5,36.2,29.53,North,350,2.0,10.0,48,0.00,,,0.00,VWS V14.01,2013-02-08 21:56:00,
2013-02-08 14:00:00,52.0,39.4,29.66,NNW,338,4.0,9.0,62,0.00,,,0.15,VWS V14.01,2013-02-08 22:00:00,
2013-02-08 14:01:00,56.0,36.6,29.53,NNW,343,5.0,10.0,48,0.00,,,0.00,VWS V14.01,2013-02-08 22:01:00,
2013-02-08 14:06:00,54.8,34.4,29.53,NNW,347,3.0,10.0,46,0.00,,,0.00,VWS V14.01,2013-02-08 22:06:00,
2013-02-08 14:11:00,54.4,34.1,29.53,NNW,348,2.0,10.0,46,0.00,,,0.00,VWS V14.01,2013-02-08 22:11:00,
2013-02-08 14:16:00,54.6,35.8,29.52,NNW,347,2.0,10.0,49,0.00,,,0.00,VWS V14.01,2013-02-08 22:16:00,
2013-02-08 14:21:00,54.8,36.5,29.52,NNW,341,4.0,10.0,50,0.00,,,0.00,VWS V14.01,2013-02-08 22:21:00,
2013-02-08 14:26:00,55.3,37.5,29.52,NNW,340,4.0,10.0,51,0.00,,,0.00,VWS V14.01,2013-02-08 22:26:00,
2013-02-08 14:30:00,51.4,39.2,29.66,NNW,338,3.0,7.0,63,0.00,,,0.15,VWS V14.01,2013-02-08 22:30:00,
2013-02-08 14:31:00,55.5,36.7,29.52,NNW,334,4.0,10.0,49,0.00,,,0.00,VWS V14.01,2013-02-08 22:31:00,
2013-02-08 14:36:00,55.1,37.3,29.52,NNW,341,7.0,10.0,51,0.00,,,0.00,VWS V14.01,2013-02-08 22:36:00,
2013-02-08 14:41:00,54.9,37.1,29.52,NNW,338,5.0,10.0,51,0.00,,,0.00,VWS V14.01,2013-02-08 22:41:00,
2013-02-08 14:46:00,54.9,37.1,29.52,NNW,338,6.0,10.0,51,0.00,,,0.00,VWS V14.01,2013-02-08 22:46:00,
2013-02-08 14:51:00,54.7,36.4,29.52,NNW,333,3.0,10.0,50,0.00,,,0.00,VWS V14.01,2013-02-08 22:51:00,
2013-02-08 14:56:00,54.6,36.3,29.52,NNW,329,5.0,10.0,50,0.00,,,0.00,VWS V14.01,2013-02-08 22:56:00,
2013-02-08 15:00:00,51.6,35.0,29.65,NNW,338,3.0,8.0,53,0.00,,,0.15,VWS V14.01,2013-02-08 23:00:00,
2013-02-08 15:01:00,54.4,36.2,29.51,NW,326,4.0,10.0,50,0.00,,,0.00,VWS V14.01,2013-02-08 23:01:00,
2013-02-08 15:06:00,54.0,36.3,29.52,NNW,330,3.0,10.0,51,0.00,,,0.00,VWS V14.01,2013-02-08 23:06:00,
2013-02-08 15:11:00,54.0,36.8,29.52,NNW,328,1.0,10.0,52,0.00,,,0.00,VWS V14.01,2013-02-08 23:11:00,
2013-02-08 15:16:00,54.2,36.5,29.51,NNW,333,4.0,10.0,51,0.00,,,0.00,VWS V14.01,2013-02-08 23:16:00,
2013-02-08 15:21:00,54.0,35.8,29.51,NW,323,8.0,10.0,50,0.00,,,0.00,VWS V14.01,2013-02-08 23:21:00,
2013-02-08 15:26:00,53.6,35.9,29.52,NW,326,5.0,10.0,51,0.00,,,0.00,VWS V14.01,2013-02-08 23:26:00,
2013-02-08 15:30:00,52.8,36.6,29.64,NNW,338,3.0,9.0,54,0.00,,,0.15,VWS V14.01,2013-02-08 23:30:00,
2013-02-08 15:31:00,53.5,35.3,29.52,NW,326,8.0,10.0,50,0.00,,,0.00,VWS V14.01,2013-02-08 23:31:00,
2013-02-08 15:36:00,53.5,35.8,29.51,NNW,328,7.0,10.0,51,0.00,,,0.00,VWS V14.01,2013-02-08 23:36:00,
2013-02-08 15:41:00,53.4,35.7,29.52,NNW,328,6.0,10.0,51,0.00,,,0.00,VWS V14.01,2013-02-08 23:41:00,
2013-02-08 15:46:00,53.3,35.2,29.52,NW,326,3.0,10.0,50,0.00,,,0.00,VWS V14.01,2013-02-08 23:46:00,
2013-02-08 15:51:00,53.0,34.9,29.51,NW,324,7.0,12.0,50,0.00,,,0.00,VWS V14.01,2013-02-08 23:51:00,
2013-02-08 15:56:00,52.7,35.6,29.51,NW,324,8.0,12.0,52,0.00,,,0.00,VWS V14.01,2013-02-08 23:56:00,
2013-02-08 16:00:00,51.6,35.0,29.64,NNW,338,3.0,8.0,53,0.00,,,0.15,VWS V14.01,2013-02-09 00:00:00,
2013-02-08 16:01:00,52.6,36.0,29.51,NW,325,5.0,12.0,53,0.00,,,0.00,VWS V14.01,2013-02-09 00:01:00,
2013-02-08 16:06:00,52.3,36.2,29.51,NW,326,3.0,12.0,54,0.00,,,0.00,VWS V14.01,2013-02-09 00:06:00,
2013-02-08 16:11:00,52.0,36.8,29.51,NNW,327,3.0,12.0,56,0.00,,,0.00,VWS V14.01,2013-02-09 00:11:00,
2013-02-08 16:16:00,52.0,37.7,29.50,NW,326,5.0,12.0,58,0.00,,,0.00,VWS V14.01,2013-02-09 00:16:00,
2013-02-08 16:21:00,51.8,37.9,29.51,NW,325,6.0,12.0,59,0.00,,,0.00,VWS V14.01,2013-02-09 00:21:00,
2013-02-08 16:26:00,51.8,37.9,29.50,NW,324,5.0,12.0,59,0.00,,,0.00,VWS V14.01,2013-02-09 00:26:00,
2013-02-08 16:30:00,51.8,35.2,29.64,NNW,338,4.0,9.0,53,0.00,,,0.15,VWS V14.01,2013-02-09 00:30:00,
2013-02-08 16:31:00,51.3,37.5,29.51,NW,326,0.0,12.0,59,0.00,,,0.00,VWS V14.01,2013-02-09 00:31:00,
2013-02-08 16:36:00,51.2,37.4,29.50,NNW,329,4.0,12.0,59,0.00,,,0.00,VWS V14.01,2013-02-09 00:36:00,
2013-02-08 16:41:00,51.0,37.2,29.50,NNW,328,4.0,12.0,59,0.00,,,0.00,VWS V14.01,2013-02-09 00:41:00,
2013-02-08 16:46:00,50.8,37.0,29.51,NNW,328,4.0,12.0,59,0.00,,,0.00,VWS V14.01,2013-02-09 00:46:00,
2013-02-08 16:51:00,50.8,37.0,29.51,NNW,328,2.0,12.0,59,0.00,,,0.00,VWS V14.01,2013-02-09 00:51:00,
2013-02-08 16:56:00,50.6,36.8,29.51,NNW,330,5.0,12.0,59,0.00,,,0.00,VWS V14.01,2013-02-09 00:56:00,
2013-02-08 17:00:00,50.7,35.1,29.63,NNW,338,3.0,7.0,55,0.00,,,0.15,VWS V14.01,2013-02-09 01:00:00,
2013-02-08 17:01:00,50.3,36.5,29.51,NNW,328,6.0,12.0,59,0.00,,,0.00,VWS V14.01,2013-02-09 01:01:00,
2013-02-08 17:06:00,50.2,36.9,29.51,NNW,327,5.0,12.0,60,0.00,,,0.00,VWS V14.01,2013-02-09 01:06:00,
2013-02-08 17:11:00,50.1,37.2,29.51,NNW,330,5.0,12.0,61,0.00,,,0.00,VWS V14.01,2013-02-09 01:11:00,
2013-02-08 17:16:00,49.9,37.0,29.51,NNW,329,4.0,12.0,61,0.00,,,0.00,VWS V14.01,2013-02-09 01:16:00,
2013-02-08 17:21:00,49.7,36.8,29.51,NNW,329,4.0,12.0,61,0.00,,,0.00,VWS V14.01,2013-02-09 01:21:00,
2013-02-08 17:26:00,49.6,37.1,29.51,NNW,328,5.0,12.0,62,0.00,,,0.00,VWS V14.01,2013-02-09 01:26:00,
2013-02-08 17:30:00,51.3,36.6,29.62,NNW,338,3.0,11.0,57,0.00,,,0.15,VWS V14.01,2013-02-09 01:30:00,
2013-02-08 17:31:00,49.5,37.0,29.51,NNW,327,4.0,12.0,62,0.00,,,0.00,VWS V14.01,2013-02-09 01:31:00,
2013-02-08 17:36:00,49.2,37.2,29.51,NNW,327,3.0,12.0,63,0.00,,,0.00,VWS V14.01,2013-02-09 01:36:00,
2013-02-08 17:41:00,49.1,37.1,29.51,NNW,329,3.0,12.0,63,0.00,,,0.00,VWS V14.01,2013-02-09 01:41:00,
2013-02-08 17:46:00,48.9,37.3,29.52,NNW,329,4.0,12.0,64,0.00,,,0.00,VWS V14.01,2013-02-09 01:46:00,
2013-02-08 17:51:00,48.7,37.1,29.52,NNW,331,2.0,12.0,64,0.00,,,0.00,VWS V14.01,2013-02-09 01:51:00,
2013-02-08 17:56:00,48.3,37.5,29.52,NNW,331,4.0,12.0,66,0.00,,,0.00,VWS V14.01,2013-02-09 01:56:00,
2013-02-08 18:00:00,50.5,37.2,29.62,NNW,338,3.0,10.0,60,0.00,,,0.15,VWS V14.01,2013-02-09 02:00:00,
2013-02-08 18:01:00,48.1,37.3,29.52,NNW,334,2.0,12.0,66,0.00,,,0.00,VWS V14.01,2013-02-09 02:01:00,
2013-02-08 18:06:00,48.1,37.7,29.53,NNW,335,5.0,12.0,67,0.00,,,0.00,VWS V14.01,2013-02-09 02:06:00,
2013-02-08 18:11:00,47.9,37.9,29.53,NNW,336,4.0,12.0,68,0.00,,,0.00,VWS V14.01,2013-02-09 02:11:00,
2013-02-08 18:16:00,47.7,37.7,29.53,NNW,338,4.0,12.0,68,0.00,,,0.00,VWS V14.01,2013-02-09 02:16:00,
2013-02-08 18:21:00,47.5,37.8,29.53,NNW,338,4.0,12.0,69,0.00,,,0.00,VWS V14.01,2013-02-09 02:21:00,
2013-02-08 18:26:00,47.4,37.8,29.53,NNW,338,4.0,12.0,69,0.00,,,0.00,VWS V14.01,2013-02-09 02:26:00,
2013-02-08 18:30:00,48.3,36.7,29.62,NNW,338,2.0,6.0,64,0.00,,,0.15,VWS V14.01,2013-02-09 02:30:00,
2013-02-08 18:31:00,47.2,37.6,29.53,NNW,338,4.0,12.0,69,0.00,,,0.00,VWS V14.01,2013-02-09 02:31:00,
2013-02-08 18:36:00,47.1,37.8,29.53,NNW,338,4.0,12.0,70,0.00,,,0.00,VWS V14.01,2013-02-09 02:36:00,
2013-02-08 18:41:00,46.9,37.6,29.54,NNW,338,3.0,12.0,70,0.00,,,0.00,VWS V14.01,2013-02-09 02:41:00,
2013-02-08 18:46:00,46.8,37.9,29.53,NNW,338,2.0,12.0,71,0.00,,,0.00,VWS V14.01,2013-02-09 02:46:00,
2013-02-08 18:51:00,46.5,37.6,29.53,NNW,338,2.0,12.0,71,0.00,,,0.00,VWS V14.01,2013-02-09 02:51:00,
2013-02-08 18:56:00,46.4,37.5,29.54,NNW,338,0.0,12.0,71,0.00,,,0.00,VWS V14.01,2013-02-09 02:56:00,
2013-02-08 19:00:00,46.9,36.9,29.62,NNW,338,1.0,5.0,68,0.00,,,0.15,VWS V14.01,2013-02-09 03:00:00,
2013-02-08 19:01:00,46.3,37.4,29.54,NNW,338,1.0,12.0,71,0.00,,,0.00,VWS V14.01,2013-02-09 03:01:00,
2013-02-08 19:06:00,46.1,37.6,29.53,NNW,338,1.0,12.0,72,0.00,,,0.00,VWS V14.01,2013-02-09 03:06:00,
2013-02-08 19:11:00,45.9,37.4,29.54,NNW,338,1.0,12.0,72,0.00,,,0.00,VWS V14.01,2013-02-09 03:11:00,
2013-02-08 19:16:00,45.8,37.3,29.54,NNW,338,2.0,12.0,72,0.00,,,0.00,VWS V14.01,2013-02-09 03:16:00,
2013-02-08 19:21:00,45.7,37.2,29.54,NNW,338,2.0,12.0,72,0.00,,,0.00,VWS V14.01,2013-02-09 03:21:00,
2013-02-08 19:26:00,45.6,37.1,29.55,NNW,338,3.0,12.0,72,0.00,,,0.00,VWS V14.01,2013-02-09 03:26:00,
2013-02-08 19:30:00,45.8,36.9,29.61,NNW,338,1.0,3.0,71,0.00,,,0.15,VWS V14.01,2013-02-09 03:30:00,
2013-02-08 19:32:00,45.5,37.0,29.54,NNW,338,0.0,12.0,72,0.00,,,0.00,VWS V14.01,2013-02-09 03:32:00,
2013-02-08 19:37:00,45.4,36.9,29.55,NNW,338,2.0,12.0,72,0.00,,,0.00,VWS V14.01,2013-02-09 03:37:00,
2013-02-08 19:42:00,45.2,36.7,29.55,NNW,338,0.0,12.0,72,0.00,,,0.00,VWS V14.01,2013-02-09 03:42:00,
2013-02-08 19:47:00,44.8,36.7,29.55,NNW,338,0.0,12.0,73,0.00,,,0.00,VWS V14.01,2013-02-09 03:47:00,
2013-02-08 19:52:00,44.7,36.6,29.54,NNW,338,2.0,12.0,73,0.00,,,0.00,VWS V14.01,2013-02-09 03:52:00,
2013-02-08 19:57:00,44.4,36.3,29.55,NNW,338,0.0,12.0,73,0.00,,,0.00,VWS V14.01,2013-02-09 03:57:00,
2013-02-08 20:00:00,44.7,36.9,29.62,NNW,338,0.0,4.0,74,0.00,,,0.15,VWS V14.01,2013-02-09 04:00:00,
2013-02-08 20:02:00,44.4,36.3,29.55,NNW,338,3.0,12.0,73,0.00,,,0.00,VWS V14.01,2013-02-09 04:02:00,
2013-02-08 20:07:00,44.6,36.5,29.55,NNW,338,3.0,12.0,73,0.00,,,0.00,VWS V14.01,2013-02-09 04:07:00,
2013-02-08 20:12:00,44.7,36.6,29.55,NNW,338,2.0,12.0,73,0.00,,,0.00,VWS V14.01,2013-02-09 04:12:00,
2013-02-08 20:17:00,44.6,36.2,29.55,NNW,338,4.0,12.0,72,0.00,,,0.00,VWS V14.01,2013-02-09 04:17:00,
2013-02-08 20:22:00,45.1,36.3,29.55,NNW,338,2.0,12.0,71,0.00,,,0.00,VWS V14.01,2013-02-09 04:22:00,
2013-02-08 20:27:00,45.1,35.9,29.55,NNW,338,3.0,12.0,70,0.00,,,0.00,VWS V14.01,2013-02-09 04:27:00,
2013-02-08 20:30:00,43.3,37.9,29.62,NNW,338,3.0,13.0,81,0.02,,,0.17,VWS V14.01,2013-02-09 04:30:00,
2013-02-08 20:32:00,45.1,35.9,29.55,NNW,338,2.0,12.0,70,0.00,,,0.00,VWS V14.01,2013-02-09 04:32:00,
2013-02-08 20:37:00,45.0,35.8,29.55,NNW,338,4.0,12.0,70,0.00,,,0.00,VWS V14.01,2013-02-09 04:37:00,
2013-02-08 20:42:00,44.8,35.3,29.55,NNW,338,4.0,12.0,69,0.00,,,0.00,VWS V14.01,2013-02-09 04:42:00,
2013-02-08 20:47:00,45.1,35.2,29.55,NNW,338,3.0,12.0,68,0.00,,,0.00,VWS V14.01,2013-02-09 04:47:00,
2013-02-08 20:52:00,45.4,34.7,29.55,NNW,338,3.0,12.0,66,0.00,,,0.00,VWS V14.01,2013-02-09 04:52:00,
2013-02-08 20:57:00,45.4,34.3,29.55,NNW,338,2.0,12.0,65,0.00,,,0.00,VWS V14.01,2013-02-09 04:57:00,
2013-02-08 21:00:00,41.9,36.8,29.61,NW,315,0.0,5.0,82,0.02,,,0.17,VWS V14.01,2013-02-09 05:00:00,
2013-02-08 21:02:00,45.4,34.3,29.55,NNW,338,3.0,12.0,65,0.00,,,0.00,VWS V14.01,2013-02-09 05:02:00,
2013-02-08 21:07:00,45.5,34.4,29.55,NNW,338,3.0,12.0,65,0.00,,,0.00,VWS V14.01,2013-02-09 05:07:00,
2013-02-08 21:12:00,45.6,33.8,29.55,NNW,338,3.0,12.0,63,0.00,,,0.00,VWS V14.01,2013-02-09 05:12:00,
2013-02-08 21:17:00,45.9,33.6,29.55,NNW,338,4.0,12.0,62,0.00,,,0.00,VWS V14.01,2013-02-09 05:17:00,
2013-02-08 21:22:00,46.2,33.5,29.56,NNW,337,3.0,12.0,61,0.00,,,0.00,VWS V14.01,2013-02-09 05:22:00,
2013-02-08 21:27:00,46.4,32.4,29.55,NNW,338,3.0,12.0,58,0.00,,,0.00,VWS V14.01,2013-02-09 05:27:00,
2013-02-08 21:30:00,41.3,36.5,29.61,NW,315,0.0,2.0,83,0.02,,,0.17,VWS V14.01,2013-02-09 05:30:00,
2013-02-08 21:32:00,46.9,32.0,29.56,NNW,331,3.0,15.0,56,0.00,,,0.00,VWS V14.01,2013-02-09 05:32:00,
2013-02-08 21:37:00,47.1,31.3,29.55,NNW,331,5.0,15.0,54,0.00,,,0.00,VWS V14.01,2013-02-09 05:37:00,
2013-02-08 21:42:00,47.3,30.6,29.56,NNW,331,6.0,15.0,52,0.00,,,0.00,VWS V14.01,2013-02-09 05:42:00,
2013-02-08 21:47:00,48.1,28.8,29.56,NNW,344,1.0,15.0,47,0.00,,,0.00,VWS V14.01,2013-02-09 05:47:00,
2013-02-08 21:52:00,48.7,28.9,29.56,NNW,342,4.0,15.0,46,0.00,,,0.00,VWS V14.01,2013-02-09 05:52:00,
2013-02-08 21:57:00,48.6,29.3,29.56,NNW,340,9.0,15.0,47,0.00,,,0.00,VWS V14.01,2013-02-09 05:57:00,
2013-02-08 22:00:00,40.8,36.3,29.60,NW,315,0.0,0.0,84,0.00,,,0.17,VWS V14.01,2013-02-09 06:00:00,
2013-02-08 22:02:00,49.0,26.9,29.56,NNW,341,8.0,15.0,42,0.00,,,0.00,VWS V14.01,2013-02-09 06:02:00,
2013-02-08 22:07:00,49.5,26.2,29.56,NNW,345,3.0,15.0,40,0.00,,,0.00,VWS V14.01,2013-02-09 06:07:00,
2013-02-08 22:12:00,49.6,26.3,29.56,NNW,344,11.0,15.0,40,0.00,,,0.00,VWS V14.01,2013-02-09 06:12:00,
2013-02-08 22:17:00,49.8,25.2,29.56,NNW,339,4.0,15.0,38,0.00,,,0.00,VWS V14.01,2013-02-09 06:17:00,
2013-02-08 22:22:00,49.8,25.2,29.56,NNW,337,6.0,15.0,38,0.00,,,0.00,VWS V14.01,2013-02-09 06:22:00,
2013-02-08 22:27:00,49.8,23.9,29.56,NNW,337,5.0,15.0,36,0.00,,,0.00,VWS V14.01,2013-02-09 06:27:00,
2013-02-08 22:30:00,40.3,36.2,29.60,NW,315,0.0,2.0,85,0.00,,,0.17,VWS V14.01,2013-02-09 06:30:00,
2013-02-08 22:32:00,50.1,23.5,29.56,NNW,328,4.0,15.0,35,0.00,,,0.00,VWS V14.01,2013-02-09 06:32:00,
2013-02-08 22:37:00,50.3,22.3,29.56,North,352,5.0,15.0,33,0.00,,,0.00,VWS V14.01,2013-02-09 06:37:00,
2013-02-08 22:42:00,50.3,23.0,29.56,North,349,3.0,15.0,34,0.00,,,0.00,VWS V14.01,2013-02-09 06:42:00,
2013-02-08 22:47:00,49.9,22.7,29.56,NNW,343,3.0,15.0,34,0.00,,,0.00,VWS V14.01,2013-02-09 06:47:00,
2013-02-08 22:52:00,49.6,22.4,29.56,North,352,4.0,15.0,34,0.00,,,0.00,VWS V14.01,2013-02-09 06:52:00,
2013-02-08 22:57:00,49.6,23.1,29.56,North,350,6.0,15.0,35,0.00,,,0.00,VWS V14.01,2013-02-09 06:57:00,
2013-02-08 23:00:00,39.6,35.8,29.59,NW,315,1.0,3.0,86,0.00,,,0.17,VWS V14.01,2013-02-09 07:00:00,
2013-02-08 23:02:00,49.5,22.3,29.55,NNW,339,3.0,15.0,34,0.00,,,0.00,VWS V14.01,2013-02-09 07:02:00,
2013-02-08 23:07:00,49.6,23.8,29.56,NNW,344,8.0,15.0,36,0.00,,,0.00,VWS V14.01,2013-02-09 07:07:00,
2013-02-08 23:12:00,49.3,21.4,29.55,North,352,3.0,15.0,33,0.00,,,0.00,VWS V14.01,2013-02-09 07:12:00,
2013-02-08 23:17:00,49.4,22.2,29.56,NNW,346,7.0,15.0,34,0.00,,,0.00,VWS V14.01,2013-02-09 07:17:00,
2013-02-08 23:22:00,49.3,23.5,29.56,NNW,341,3.0,15.0,36,0.00,,,0.00,VWS V14.01,2013-02-09 07:22:00,
2013-02-08 23:27:00,48.7,24.2,29.56,NNW,341,2.0,15.0,38,0.00,,,0.00,VWS V14.01,2013-02-09 07:27:00,
2013-02-08 23:30:00,38.8,35.3,29.58,NW,315,1.0,3.0,87,0.00,,,0.17,VWS V14.01,2013-02-09 07:30:00,
2013-02-08 23:32:00,47.7,26.3,29.57,NNW,341,3.0,15.0,43,0.00,,,0.00,VWS V14.01,2013-02-09 07:32:00,
2013-02-08 23:37:00,46.8,27.6,29.57,NNW,341,2.0,15.0,47,0.00,,,0.00,VWS V14.01,2013-02-09 07:37:00,
2013-02-08 23:42:00,45.8,27.7,29.56,NNW,341,2.0,15.0,49,0.00,,,0.00,VWS V14.01,2013-02-09 07:42:00,
2013-02-08 23:47:00,44.8,28.3,29.57,NNW,341,2.0,15.0,52,0.00,,,0.00,VWS V14.01,2013-02-09 07:47:00,
2013-02-08 23:52:00,44.3,28.3,29.56,NNW,341,2.0,15.0,53,0.00,,,0.00,VWS V14.01,2013-02-09 07:52:00,
2013-02-08 23:57:00,44.2,28.6,29.56,NNW,341,3.0,15.0,54,0.00,,,0.00,VWS V14.01,2013-02-09 07:57:00,